SSEC Globe Logo

Space Science and Engineering Center

Regional Terminal Forecasts

KMSN 231727Z 2318/2418 07005KT P6SM BKN050 FM232200 09007KT
     P6SM BKN050 FM240500 09004KT P6SM BKN230 FM241400
     09006KT P6SM BKN120=
KMKE 231727Z 2318/2424 08009KT P6SM FEW060 FM232300 05007KT
     P6SM BKN250 FM241600 10009KT P6SM BKN120 FM242000
     06009KT P6SM BKN150 FM242300 04010KT P6SM BKN140=
KGRB 231722Z 2318/2418 12005KT P6SM BKN060 FM232300 11006KT
     P6SM SCT070 BKN150 FM240200 VRB02KT P6SM BKN150
     FM241400 09006KT P6SM SCT080 BKN150=
TAF KAUW 231722Z 2318/2418 VRB04KT P6SM BKN060 FM232200
     16005KT P6SM SCT070 BKN200 FM240200 13003KT P6SM BKN200
     FM240600 VRB02KT P6SM SCT140 BKN200 FM241400 14006KT
     P6SM SCT080 BKN140=
KEAU 231720Z 2318/2418 16004KT P6SM SCT070 BKN250 FM240100
     14005KT P6SM BKN250 FM241500 13006KT P6SM FEW035
     SCT250=
KLSE 231722Z 2318/2418 12005KT P6SM BKN200 FM241500 14007KT
     P6SM BKN120=
KDBQ 231720Z 2318/2418 07009KT P6SM SCT050 BKN150=
TAF KRFD 231720Z 2318/2418 08010KT P6SM FEW050 BKN150=
KORD 231720Z 2318/2424 06010KT P6SM FEW050 BKN150=